sensor_id;sensor_type;location;lat;lon;timestamp;P1;durP1;ratioP1;P2;durP2;ratioP2
16320;SDS011;8269;50.990;4.494;2023-03-01T00:01:20;9.33;;;7.10;;
16320;SDS011;8269;50.990;4.494;2023-03-01T00:03:46;11.07;;;7.07;;
16320;SDS011;8269;50.990;4.494;2023-03-01T00:06:12;10.27;;;7.73;;
16320;SDS011;8269;50.990;4.494;2023-03-01T00:08:39;12.60;;;7.77;;
16320;SDS011;8269;50.990;4.494;2023-03-01T00:13:38;10.27;;;7.60;;
16320;SDS011;8269;50.990;4.494;2023-03-01T00:16:05;10.50;;;7.60;;
16320;SDS011;8269;50.990;4.494;2023-03-01T00:18:31;10.83;;;7.77;;
16320;SDS011;8269;50.990;4.494;2023-03-01T00:20:57;10.77;;;7.47;;
16320;SDS011;8269;50.990;4.494;2023-03-01T00:23:24;9.60;;;7.60;;
16320;SDS011;8269;50.990;4.494;2023-03-01T00:25:50;11.37;;;7.67;;
16320;SDS011;8269;50.990;4.494;2023-03-01T00:28:17;11.30;;;7.63;;
16320;SDS011;8269;50.990;4.494;2023-03-01T00:30:43;11.67;;;7.57;;
16320;SDS011;8269;50.990;4.494;2023-03-01T00:33:09;10.23;;;6.93;;
16320;SDS011;8269;50.990;4.494;2023-03-01T00:35:35;10.03;;;7.67;;
16320;SDS011;8269;50.990;4.494;2023-03-01T00:38:02;11.63;;;8.03;;
16320;SDS011;8269;50.990;4.494;2023-03-01T00:40:29;10.23;;;7.70;;
16320;SDS011;8269;50.990;4.494;2023-03-01T00:42:55;15.97;;;8.00;;
16320;SDS011;8269;50.990;4.494;2023-03-01T00:45:21;10.13;;;7.10;;
16320;SDS011;8269;50.990;4.494;2023-03-01T00:47:48;12.77;;;7.90;;
16320;SDS011;8269;50.990;4.494;2023-03-01T00:50:14;10.23;;;8.07;;
16320;SDS011;8269;50.990;4.494;2023-03-01T00:52:40;12.47;;;7.77;;
16320;SDS011;8269;50.990;4.494;2023-03-01T00:55:06;11.10;;;7.53;;
16320;SDS011;8269;50.990;4.494;2023-03-01T00:57:32;11.90;;;7.43;;
16320;SDS011;8269;50.990;4.494;2023-03-01T00:59:58;10.87;;;7.70;;
16320;SDS011;8269;50.990;4.494;2023-03-01T01:02:24;10.07;;;7.63;;
16320;SDS011;8269;50.990;4.494;2023-03-01T01:04:51;11.00;;;8.03;;
16320;SDS011;8269;50.990;4.494;2023-03-01T01:07:17;9.83;;;7.00;;
16320;SDS011;8269;50.990;4.494;2023-03-01T01:09:45;10.63;;;7.90;;
16320;SDS011;8269;50.990;4.494;2023-03-01T01:12:11;9.83;;;7.57;;
16320;SDS011;8269;50.990;4.494;2023-03-01T01:14:37;11.23;;;8.07;;
16320;SDS011;8269;50.990;4.494;2023-03-01T01:17:04;10.80;;;7.17;;
16320;SDS011;8269;50.990;4.494;2023-03-01T01:19:31;10.73;;;7.53;;
16320;SDS011;8269;50.990;4.494;2023-03-01T01:21:57;9.13;;;6.63;;
16320;SDS011;8269;50.990;4.494;2023-03-01T01:24:24;11.07;;;7.23;;
16320;SDS011;8269;50.990;4.494;2023-03-01T01:26:51;8.63;;;6.53;;
16320;SDS011;8269;50.990;4.494;2023-03-01T01:29:17;10.93;;;7.37;;
16320;SDS011;8269;50.990;4.494;2023-03-01T01:31:43;10.23;;;7.30;;
16320;SDS011;8269;50.990;4.494;2023-03-01T01:34:14;10.67;;;7.67;;
16320;SDS011;8269;50.990;4.494;2023-03-01T01:36:40;11.50;;;7.80;;
16320;SDS011;8269;50.990;4.494;2023-03-01T01:39:06;10.37;;;7.80;;
16320;SDS011;8269;50.990;4.494;2023-03-01T01:41:32;11.40;;;7.87;;
16320;SDS011;8269;50.990;4.494;2023-03-01T01:44:13;13.67;;;8.80;;
16320;SDS011;8269;50.990;4.494;2023-03-01T01:46:46;11.10;;;7.70;;
16320;SDS011;8269;50.990;4.494;2023-03-01T01:49:24;10.97;;;7.33;;
16320;SDS011;8269;50.990;4.494;2023-03-01T01:51:55;10.67;;;7.47;;
16320;SDS011;8269;50.990;4.494;2023-03-01T01:54:25;11.90;;;7.27;;
16320;SDS011;8269;50.990;4.494;2023-03-01T01:56:55;10.53;;;8.00;;
16320;SDS011;8269;50.990;4.494;2023-03-01T01:59:22;10.83;;;7.33;;
16320;SDS011;8269;50.990;4.494;2023-03-01T02:01:49;11.73;;;7.60;;
16320;SDS011;8269;50.990;4.494;2023-03-01T02:04:15;10.63;;;7.30;;
16320;SDS011;8269;50.990;4.494;2023-03-01T02:06:43;11.03;;;7.80;;
16320;SDS011;8269;50.990;4.494;2023-03-01T02:09:13;11.00;;;7.70;;
16320;SDS011;8269;50.990;4.494;2023-03-01T02:11:39;12.50;;;7.73;;
16320;SDS011;8269;50.990;4.494;2023-03-01T02:14:05;10.43;;;7.23;;
16320;SDS011;8269;50.990;4.494;2023-03-01T02:16:32;13.13;;;7.63;;
16320;SDS011;8269;50.990;4.494;2023-03-01T02:18:58;11.40;;;8.30;;
16320;SDS011;8269;50.990;4.494;2023-03-01T02:23:58;12.30;;;7.93;;
16320;SDS011;8269;50.990;4.494;2023-03-01T02:28:53;13.07;;;8.03;;
16320;SDS011;8269;50.990;4.494;2023-03-01T02:31:20;10.40;;;7.50;;
16320;SDS011;8269;50.990;4.494;2023-03-01T02:34:05;9.97;;;7.50;;
16320;SDS011;8269;50.990;4.494;2023-03-01T02:36:35;10.27;;;7.40;;
16320;SDS011;8269;50.990;4.494;2023-03-01T02:39:02;10.60;;;7.30;;
16320;SDS011;8269;50.990;4.494;2023-03-01T02:41:30;12.53;;;7.83;;
16320;SDS011;8269;50.990;4.494;2023-03-01T02:43:57;10.93;;;7.37;;
16320;SDS011;8269;50.990;4.494;2023-03-01T02:46:24;12.37;;;7.97;;
16320;SDS011;8269;50.990;4.494;2023-03-01T02:48:52;11.20;;;7.63;;
16320;SDS011;8269;50.990;4.494;2023-03-01T02:51:22;10.93;;;8.00;;
16320;SDS011;8269;50.990;4.494;2023-03-01T02:56:20;14.53;;;9.00;;
16320;SDS011;8269;50.990;4.494;2023-03-01T02:58:46;14.73;;;8.60;;
16320;SDS011;8269;50.990;4.494;2023-03-01T03:01:16;12.23;;;8.10;;
16320;SDS011;8269;50.990;4.494;2023-03-01T03:03:42;11.70;;;7.77;;
16320;SDS011;8269;50.990;4.494;2023-03-01T03:06:09;11.83;;;8.80;;
16320;SDS011;8269;50.990;4.494;2023-03-01T03:08:35;13.13;;;8.80;;
16320;SDS011;8269;50.990;4.494;2023-03-01T03:11:01;12.50;;;8.83;;
16320;SDS011;8269;50.990;4.494;2023-03-01T03:13:27;12.23;;;9.00;;
16320;SDS011;8269;50.990;4.494;2023-03-01T03:15:53;13.67;;;8.87;;
16320;SDS011;8269;50.990;4.494;2023-03-01T03:18:20;12.37;;;8.73;;
16320;SDS011;8269;50.990;4.494;2023-03-01T03:20:47;12.97;;;8.90;;
16320;SDS011;8269;50.990;4.494;2023-03-01T03:23:17;11.47;;;8.60;;
16320;SDS011;8269;50.990;4.494;2023-03-01T03:25:43;12.27;;;8.90;;
16320;SDS011;8269;50.990;4.494;2023-03-01T03:28:09;13.40;;;8.73;;
16320;SDS011;8269;50.990;4.494;2023-03-01T03:30:37;14.67;;;9.50;;
16320;SDS011;8269;50.990;4.494;2023-03-01T03:33:06;12.47;;;9.17;;
16320;SDS011;8269;50.990;4.494;2023-03-01T03:35:33;12.57;;;8.63;;
16320;SDS011;8269;50.990;4.494;2023-03-01T03:38:00;13.07;;;8.80;;
16320;SDS011;8269;50.990;4.494;2023-03-01T03:40:26;12.30;;;8.57;;
16320;SDS011;8269;50.990;4.494;2023-03-01T03:42:53;13.83;;;9.13;;
16320;SDS011;8269;50.990;4.494;2023-03-01T03:45:19;14.00;;;9.20;;
16320;SDS011;8269;50.990;4.494;2023-03-01T03:47:45;12.27;;;8.70;;
16320;SDS011;8269;50.990;4.494;2023-03-01T03:50:12;13.10;;;8.33;;
16320;SDS011;8269;50.990;4.494;2023-03-01T03:52:39;16.77;;;9.17;;
16320;SDS011;8269;50.990;4.494;2023-03-01T03:55:06;13.03;;;8.77;;
16320;SDS011;8269;50.990;4.494;2023-03-01T03:57:36;13.63;;;8.63;;
16320;SDS011;8269;50.990;4.494;2023-03-01T04:00:04;13.27;;;9.07;;
16320;SDS011;8269;50.990;4.494;2023-03-01T04:02:38;11.97;;;8.73;;
16320;SDS011;8269;50.990;4.494;2023-03-01T04:05:04;12.37;;;9.27;;
16320;SDS011;8269;50.990;4.494;2023-03-01T04:07:30;12.87;;;8.27;;
16320;SDS011;8269;50.990;4.494;2023-03-01T04:09:56;13.60;;;8.73;;
16320;SDS011;8269;50.990;4.494;2023-03-01T04:12:22;12.83;;;8.80;;
16320;SDS011;8269;50.990;4.494;2023-03-01T04:14:48;11.97;;;8.47;;
16320;SDS011;8269;50.990;4.494;2023-03-01T04:17:14;14.80;;;8.90;;
16320;SDS011;8269;50.990;4.494;2023-03-01T04:19:40;11.23;;;8.37;;
16320;SDS011;8269;50.990;4.494;2023-03-01T04:22:08;14.70;;;8.70;;
16320;SDS011;8269;50.990;4.494;2023-03-01T04:24:36;11.83;;;8.23;;
16320;SDS011;8269;50.990;4.494;2023-03-01T04:27:02;12.03;;;7.97;;
16320;SDS011;8269;50.990;4.494;2023-03-01T04:29:29;11.47;;;8.53;;
16320;SDS011;8269;50.990;4.494;2023-03-01T04:31:55;12.77;;;8.83;;
16320;SDS011;8269;50.990;4.494;2023-03-01T04:34:21;13.80;;;8.57;;
16320;SDS011;8269;50.990;4.494;2023-03-01T04:36:47;13.97;;;8.90;;
16320;SDS011;8269;50.990;4.494;2023-03-01T04:39:13;14.57;;;8.40;;
16320;SDS011;8269;50.990;4.494;2023-03-01T04:41:39;13.60;;;8.07;;
16320;SDS011;8269;50.990;4.494;2023-03-01T04:44:06;11.70;;;7.57;;
16320;SDS011;8269;50.990;4.494;2023-03-01T04:46:34;12.27;;;8.10;;
16320;SDS011;8269;50.990;4.494;2023-03-01T04:49:00;12.97;;;9.10;;
16320;SDS011;8269;50.990;4.494;2023-03-01T04:51:26;12.50;;;8.30;;
16320;SDS011;8269;50.990;4.494;2023-03-01T04:53:52;12.83;;;8.47;;
16320;SDS011;8269;50.990;4.494;2023-03-01T04:56:18;16.53;;;9.70;;
16320;SDS011;8269;50.990;4.494;2023-03-01T04:58:45;12.27;;;8.60;;
16320;SDS011;8269;50.990;4.494;2023-03-01T05:01:15;12.03;;;7.47;;
16320;SDS011;8269;50.990;4.494;2023-03-01T05:03:51;10.80;;;8.33;;
16320;SDS011;8269;50.990;4.494;2023-03-01T05:06:17;14.70;;;8.37;;
16320;SDS011;8269;50.990;4.494;2023-03-01T05:08:45;16.83;;;8.67;;
16320;SDS011;8269;50.990;4.494;2023-03-01T05:11:11;11.43;;;8.33;;
16320;SDS011;8269;50.990;4.494;2023-03-01T05:13:38;14.60;;;8.43;;
16320;SDS011;8269;50.990;4.494;2023-03-01T05:16:05;11.87;;;7.97;;
16320;SDS011;8269;50.990;4.494;2023-03-01T05:18:32;13.37;;;8.43;;
16320;SDS011;8269;50.990;4.494;2023-03-01T05:21:09;15.30;;;9.17;;
16320;SDS011;8269;50.990;4.494;2023-03-01T05:23:35;13.03;;;8.07;;
16320;SDS011;8269;50.990;4.494;2023-03-01T05:26:03;12.30;;;8.70;;
16320;SDS011;8269;50.990;4.494;2023-03-01T05:28:30;12.47;;;8.87;;
16320;SDS011;8269;50.990;4.494;2023-03-01T05:30:57;20.25;;;12.73;;
16320;SDS011;8269;50.990;4.494;2023-03-01T05:33:23;14.43;;;10.13;;
16320;SDS011;8269;50.990;4.494;2023-03-01T05:35:50;14.43;;;9.53;;
16320;SDS011;8269;50.990;4.494;2023-03-01T05:38:19;13.10;;;9.27;;
16320;SDS011;8269;50.990;4.494;2023-03-01T05:40:46;12.57;;;9.03;;
16320;SDS011;8269;50.990;4.494;2023-03-01T05:43:13;12.73;;;8.80;;
16320;SDS011;8269;50.990;4.494;2023-03-01T05:45:40;11.00;;;8.43;;
16320;SDS011;8269;50.990;4.494;2023-03-01T05:48:07;13.23;;;8.77;;
16320;SDS011;8269;50.990;4.494;2023-03-01T05:50:34;14.00;;;9.00;;
16320;SDS011;8269;50.990;4.494;2023-03-01T05:53:03;15.53;;;8.87;;
16320;SDS011;8269;50.990;4.494;2023-03-01T05:55:30;14.50;;;9.30;;
16320;SDS011;8269;50.990;4.494;2023-03-01T05:58:00;15.17;;;10.53;;
16320;SDS011;8269;50.990;4.494;2023-03-01T06:00:27;14.97;;;9.13;;
16320;SDS011;8269;50.990;4.494;2023-03-01T06:02:54;12.77;;;8.37;;
16320;SDS011;8269;50.990;4.494;2023-03-01T06:05:20;12.53;;;8.20;;
16320;SDS011;8269;50.990;4.494;2023-03-01T06:07:47;15.70;;;9.33;;
16320;SDS011;8269;50.990;4.494;2023-03-01T06:10:13;11.67;;;7.83;;
16320;SDS011;8269;50.990;4.494;2023-03-01T06:12:41;11.80;;;8.30;;
16320;SDS011;8269;50.990;4.494;2023-03-01T06:15:07;12.70;;;8.07;;
16320;SDS011;8269;50.990;4.494;2023-03-01T06:17:37;15.00;;;9.33;;
16320;SDS011;8269;50.990;4.494;2023-03-01T06:20:04;12.30;;;8.70;;
16320;SDS011;8269;50.990;4.494;2023-03-01T06:22:31;14.57;;;9.87;;
16320;SDS011;8269;50.990;4.494;2023-03-01T06:24:58;17.63;;;10.83;;
16320;SDS011;8269;50.990;4.494;2023-03-01T06:27:24;20.17;;;12.27;;
16320;SDS011;8269;50.990;4.494;2023-03-01T06:29:50;19.87;;;11.80;;
16320;SDS011;8269;50.990;4.494;2023-03-01T06:32:16;17.03;;;10.90;;
16320;SDS011;8269;50.990;4.494;2023-03-01T06:34:42;12.47;;;8.70;;
16320;SDS011;8269;50.990;4.494;2023-03-01T06:37:09;14.87;;;8.97;;
16320;SDS011;8269;50.990;4.494;2023-03-01T06:39:35;14.97;;;9.43;;
16320;SDS011;8269;50.990;4.494;2023-03-01T06:42:01;14.70;;;9.63;;
16320;SDS011;8269;50.990;4.494;2023-03-01T06:44:27;14.30;;;9.40;;
16320;SDS011;8269;50.990;4.494;2023-03-01T06:46:53;17.60;;;10.13;;
16320;SDS011;8269;50.990;4.494;2023-03-01T06:49:19;17.40;;;9.60;;
16320;SDS011;8269;50.990;4.494;2023-03-01T06:51:46;19.07;;;10.07;;
16320;SDS011;8269;50.990;4.494;2023-03-01T06:54:12;15.57;;;9.80;;
16320;SDS011;8269;50.990;4.494;2023-03-01T06:56:39;14.33;;;8.93;;
16320;SDS011;8269;50.990;4.494;2023-03-01T06:59:05;14.40;;;8.90;;
16320;SDS011;8269;50.990;4.494;2023-03-01T07:01:31;12.97;;;9.17;;
16320;SDS011;8269;50.990;4.494;2023-03-01T07:03:57;17.33;;;9.27;;
16320;SDS011;8269;50.990;4.494;2023-03-01T07:06:23;14.40;;;9.70;;
16320;SDS011;8269;50.990;4.494;2023-03-01T07:08:49;14.03;;;9.43;;
16320;SDS011;8269;50.990;4.494;2023-03-01T07:11:15;12.20;;;9.13;;
16320;SDS011;8269;50.990;4.494;2023-03-01T07:13:41;13.57;;;9.27;;
16320;SDS011;8269;50.990;4.494;2023-03-01T07:16:08;14.87;;;9.43;;
16320;SDS011;8269;50.990;4.494;2023-03-01T07:18:34;12.83;;;9.67;;
16320;SDS011;8269;50.990;4.494;2023-03-01T07:21:03;14.67;;;9.93;;
16320;SDS011;8269;50.990;4.494;2023-03-01T07:23:30;15.33;;;9.60;;
16320;SDS011;8269;50.990;4.494;2023-03-01T07:25:56;14.13;;;9.07;;
16320;SDS011;8269;50.990;4.494;2023-03-01T07:28:22;16.47;;;10.33;;
16320;SDS011;8269;50.990;4.494;2023-03-01T07:30:48;15.07;;;8.73;;
16320;SDS011;8269;50.990;4.494;2023-03-01T07:33:14;13.37;;;10.40;;
16320;SDS011;8269;50.990;4.494;2023-03-01T07:35:40;15.53;;;10.33;;
16320;SDS011;8269;50.990;4.494;2023-03-01T07:38:06;13.40;;;9.00;;
16320;SDS011;8269;50.990;4.494;2023-03-01T07:40:33;14.27;;;9.67;;
16320;SDS011;8269;50.990;4.494;2023-03-01T07:42:59;11.80;;;8.53;;
16320;SDS011;8269;50.990;4.494;2023-03-01T07:45:26;11.50;;;8.60;;
16320;SDS011;8269;50.990;4.494;2023-03-01T07:47:52;12.73;;;8.87;;
16320;SDS011;8269;50.990;4.494;2023-03-01T07:50:18;10.97;;;8.13;;
16320;SDS011;8269;50.990;4.494;2023-03-01T07:52:45;12.97;;;8.30;;
16320;SDS011;8269;50.990;4.494;2023-03-01T07:55:12;12.57;;;8.87;;
16320;SDS011;8269;50.990;4.494;2023-03-01T07:57:38;13.83;;;8.20;;
16320;SDS011;8269;50.990;4.494;2023-03-01T08:00:04;13.50;;;7.87;;
16320;SDS011;8269;50.990;4.494;2023-03-01T08:02:31;11.57;;;8.00;;
16320;SDS011;8269;50.990;4.494;2023-03-01T08:04:57;9.73;;;7.90;;
16320;SDS011;8269;50.990;4.494;2023-03-01T08:07:23;12.83;;;8.07;;
16320;SDS011;8269;50.990;4.494;2023-03-01T08:09:49;13.37;;;8.67;;
16320;SDS011;8269;50.990;4.494;2023-03-01T08:12:15;11.67;;;7.90;;
16320;SDS011;8269;50.990;4.494;2023-03-01T08:14:41;10.63;;;7.97;;
16320;SDS011;8269;50.990;4.494;2023-03-01T08:17:08;13.00;;;8.27;;
16320;SDS011;8269;50.990;4.494;2023-03-01T08:19:34;10.67;;;7.87;;
16320;SDS011;8269;50.990;4.494;2023-03-01T08:22:03;10.73;;;7.73;;
16320;SDS011;8269;50.990;4.494;2023-03-01T08:24:29;10.83;;;8.03;;
16320;SDS011;8269;50.990;4.494;2023-03-01T08:26:55;12.90;;;8.53;;
16320;SDS011;8269;50.990;4.494;2023-03-01T08:29:22;10.90;;;8.03;;
16320;SDS011;8269;50.990;4.494;2023-03-01T08:31:49;11.90;;;8.77;;
16320;SDS011;8269;50.990;4.494;2023-03-01T08:34:16;10.60;;;8.00;;
16320;SDS011;8269;50.990;4.494;2023-03-01T08:36:43;10.93;;;8.40;;
16320;SDS011;8269;50.990;4.494;2023-03-01T08:39:12;15.83;;;8.33;;
16320;SDS011;8269;50.990;4.494;2023-03-01T08:41:39;11.90;;;8.67;;
16320;SDS011;8269;50.990;4.494;2023-03-01T08:44:05;12.47;;;8.63;;
16320;SDS011;8269;50.990;4.494;2023-03-01T08:46:32;16.03;;;9.07;;
16320;SDS011;8269;50.990;4.494;2023-03-01T08:48:59;12.07;;;9.07;;
16320;SDS011;8269;50.990;4.494;2023-03-01T08:51:25;13.17;;;8.00;;
16320;SDS011;8269;50.990;4.494;2023-03-01T08:53:52;11.97;;;8.37;;
16320;SDS011;8269;50.990;4.494;2023-03-01T08:56:18;12.53;;;8.77;;
16320;SDS011;8269;50.990;4.494;2023-03-01T08:58:45;11.93;;;8.07;;
16320;SDS011;8269;50.990;4.494;2023-03-01T09:01:12;10.87;;;8.07;;
16320;SDS011;8269;50.990;4.494;2023-03-01T09:03:39;12.43;;;8.93;;
16320;SDS011;8269;50.990;4.494;2023-03-01T09:06:05;11.23;;;8.23;;
16320;SDS011;8269;50.990;4.494;2023-03-01T09:08:34;11.57;;;7.90;;
16320;SDS011;8269;50.990;4.494;2023-03-01T09:11:03;12.77;;;9.10;;
16320;SDS011;8269;50.990;4.494;2023-03-01T09:13:30;11.40;;;8.47;;
16320;SDS011;8269;50.990;4.494;2023-03-01T09:15:56;12.57;;;8.90;;
16320;SDS011;8269;50.990;4.494;2023-03-01T09:18:22;13.07;;;8.70;;
16320;SDS011;8269;50.990;4.494;2023-03-01T09:20:48;11.40;;;8.50;;
16320;SDS011;8269;50.990;4.494;2023-03-01T09:23:14;11.13;;;8.80;;
16320;SDS011;8269;50.990;4.494;2023-03-01T09:25:43;12.37;;;8.53;;
16320;SDS011;8269;50.990;4.494;2023-03-01T09:28:10;10.80;;;8.83;;
16320;SDS011;8269;50.990;4.494;2023-03-01T09:30:36;12.50;;;9.00;;
16320;SDS011;8269;50.990;4.494;2023-03-01T09:33:02;11.43;;;8.67;;
16320;SDS011;8269;50.990;4.494;2023-03-01T09:35:29;14.80;;;8.77;;
16320;SDS011;8269;50.990;4.494;2023-03-01T09:37:55;12.37;;;8.93;;
16320;SDS011;8269;50.990;4.494;2023-03-01T09:40:21;13.07;;;8.13;;
16320;SDS011;8269;50.990;4.494;2023-03-01T09:42:51;13.63;;;9.13;;
16320;SDS011;8269;50.990;4.494;2023-03-01T09:45:21;11.53;;;8.60;;
16320;SDS011;8269;50.990;4.494;2023-03-01T09:47:49;12.83;;;8.53;;
16320;SDS011;8269;50.990;4.494;2023-03-01T09:50:19;13.63;;;9.57;;
16320;SDS011;8269;50.990;4.494;2023-03-01T09:55:15;10.77;;;8.47;;
16320;SDS011;8269;50.990;4.494;2023-03-01T09:57:49;13.97;;;9.17;;
16320;SDS011;8269;50.990;4.494;2023-03-01T10:00:18;14.83;;;8.93;;
16320;SDS011;8269;50.990;4.494;2023-03-01T10:03:02;13.00;;;8.77;;
16320;SDS011;8269;50.990;4.494;2023-03-01T10:05:43;11.67;;;7.80;;
16320;SDS011;8269;50.990;4.494;2023-03-01T10:08:24;12.70;;;8.70;;
16320;SDS011;8269;50.990;4.494;2023-03-01T10:10:52;12.63;;;8.47;;
16320;SDS011;8269;50.990;4.494;2023-03-01T10:13:19;11.17;;;8.40;;
16320;SDS011;8269;50.990;4.494;2023-03-01T10:15:49;12.33;;;7.83;;
16320;SDS011;8269;50.990;4.494;2023-03-01T10:18:21;11.90;;;7.87;;
16320;SDS011;8269;50.990;4.494;2023-03-01T10:20:53;12.57;;;7.97;;
16320;SDS011;8269;50.990;4.494;2023-03-01T10:23:20;12.10;;;7.93;;
16320;SDS011;8269;50.990;4.494;2023-03-01T10:30:44;11.97;;;8.33;;
16320;SDS011;8269;50.990;4.494;2023-03-01T10:33:29;12.67;;;8.23;;
16320;SDS011;8269;50.990;4.494;2023-03-01T10:35:56;11.83;;;8.53;;
16320;SDS011;8269;50.990;4.494;2023-03-01T10:38:22;10.97;;;8.23;;
16320;SDS011;8269;50.990;4.494;2023-03-01T10:40:59;13.67;;;8.73;;
16320;SDS011;8269;50.990;4.494;2023-03-01T10:43:27;12.00;;;8.20;;
16320;SDS011;8269;50.990;4.494;2023-03-01T10:45:57;12.30;;;8.50;;
16320;SDS011;8269;50.990;4.494;2023-03-01T10:48:24;11.63;;;8.10;;
16320;SDS011;8269;50.990;4.494;2023-03-01T10:56:01;9.60;;;7.50;;
16320;SDS011;8269;50.990;4.494;2023-03-01T10:58:28;11.93;;;8.23;;
16320;SDS011;8269;50.990;4.494;2023-03-01T11:00:55;12.23;;;8.60;;
16320;SDS011;8269;50.990;4.494;2023-03-01T11:04:03;12.43;;;8.27;;
16320;SDS011;8269;50.990;4.494;2023-03-01T11:08:44;14.07;;;8.27;;
16320;SDS011;8269;50.990;4.494;2023-03-01T11:11:30;12.70;;;8.67;;
16320;SDS011;8269;50.990;4.494;2023-03-01T11:13:57;11.57;;;8.33;;
16320;SDS011;8269;50.990;4.494;2023-03-01T11:19:03;11.47;;;7.97;;
16320;SDS011;8269;50.990;4.494;2023-03-01T11:21:30;14.53;;;8.80;;
16320;SDS011;8269;50.990;4.494;2023-03-01T11:23:57;10.83;;;7.20;;
16320;SDS011;8269;50.990;4.494;2023-03-01T11:26:25;10.87;;;8.30;;
16320;SDS011;8269;50.990;4.494;2023-03-01T11:28:53;11.73;;;8.03;;
16320;SDS011;8269;50.990;4.494;2023-03-01T11:31:21;11.67;;;7.93;;
16320;SDS011;8269;50.990;4.494;2023-03-01T11:36:30;13.57;;;8.43;;
16320;SDS011;8269;50.990;4.494;2023-03-01T11:39:02;11.70;;;7.93;;
16320;SDS011;8269;50.990;4.494;2023-03-01T11:41:33;10.27;;;7.17;;
16320;SDS011;8269;50.990;4.494;2023-03-01T11:44:01;12.23;;;7.30;;
16320;SDS011;8269;50.990;4.494;2023-03-01T11:56:57;11.60;;;7.53;;
16320;SDS011;8269;50.990;4.494;2023-03-01T11:59:30;11.17;;;8.03;;
16320;SDS011;8269;50.990;4.494;2023-03-01T12:09:55;14.33;;;8.30;;
16320;SDS011;8269;50.990;4.494;2023-03-01T12:15:02;16.10;;;8.03;;
16320;SDS011;8269;50.990;4.494;2023-03-01T12:17:43;11.00;;;7.60;;
16320;SDS011;8269;50.990;4.494;2023-03-01T12:27:54;11.10;;;7.87;;
16320;SDS011;8269;50.990;4.494;2023-03-01T12:48:52;12.57;;;8.37;;
16320;SDS011;8269;50.990;4.494;2023-03-01T12:51:21;10.93;;;7.00;;
16320;SDS011;8269;50.990;4.494;2023-03-01T12:53:50;10.30;;;7.93;;
16320;SDS011;8269;50.990;4.494;2023-03-01T12:56:17;10.87;;;8.13;;
16320;SDS011;8269;50.990;4.494;2023-03-01T13:06:29;10.60;;;7.70;;
16320;SDS011;8269;50.990;4.494;2023-03-01T13:09:04;11.13;;;8.33;;
16320;SDS011;8269;50.990;4.494;2023-03-01T13:11:31;11.93;;;7.80;;
16320;SDS011;8269;50.990;4.494;2023-03-01T13:16:44;10.63;;;7.80;;
16320;SDS011;8269;50.990;4.494;2023-03-01T13:21:43;11.60;;;7.87;;
16320;SDS011;8269;50.990;4.494;2023-03-01T13:32:31;11.10;;;7.57;;
16320;SDS011;8269;50.990;4.494;2023-03-01T13:37:25;14.13;;;9.30;;
16320;SDS011;8269;50.990;4.494;2023-03-01T13:39:51;11.10;;;8.47;;
16320;SDS011;8269;50.990;4.494;2023-03-01T13:42:31;11.57;;;8.50;;
16320;SDS011;8269;50.990;4.494;2023-03-01T13:44:57;11.47;;;8.47;;
16320;SDS011;8269;50.990;4.494;2023-03-01T13:47:24;11.93;;;8.57;;
16320;SDS011;8269;50.990;4.494;2023-03-01T13:49:57;11.97;;;8.27;;
16320;SDS011;8269;50.990;4.494;2023-03-01T13:57:47;12.03;;;7.60;;
16320;SDS011;8269;50.990;4.494;2023-03-01T14:00:35;13.63;;;8.87;;
16320;SDS011;8269;50.990;4.494;2023-03-01T14:03:08;11.27;;;8.33;;
16320;SDS011;8269;50.990;4.494;2023-03-01T14:05:34;11.83;;;8.27;;
16320;SDS011;8269;50.990;4.494;2023-03-01T14:08:01;11.40;;;7.83;;
16320;SDS011;8269;50.990;4.494;2023-03-01T14:10:30;11.77;;;8.97;;
16320;SDS011;8269;50.990;4.494;2023-03-01T14:19:29;11.17;;;7.60;;
16320;SDS011;8269;50.990;4.494;2023-03-01T14:21:30;14.40;;;9.27;;
16320;SDS011;8269;50.990;4.494;2023-03-01T14:23:56;14.20;;;8.97;;
16320;SDS011;8269;50.990;4.494;2023-03-01T14:26:23;10.23;;;8.03;;
16320;SDS011;8269;50.990;4.494;2023-03-01T14:28:49;11.03;;;8.13;;
16320;SDS011;8269;50.990;4.494;2023-03-01T14:31:32;11.43;;;8.27;;
16320;SDS011;8269;50.990;4.494;2023-03-01T14:34:00;12.77;;;8.00;;
16320;SDS011;8269;50.990;4.494;2023-03-01T14:36:26;10.47;;;8.40;;
16320;SDS011;8269;50.990;4.494;2023-03-01T14:38:53;11.57;;;8.00;;
16320;SDS011;8269;50.990;4.494;2023-03-01T14:41:23;11.23;;;8.30;;
16320;SDS011;8269;50.990;4.494;2023-03-01T14:43:51;11.97;;;8.33;;
16320;SDS011;8269;50.990;4.494;2023-03-01T14:49:01;10.77;;;8.27;;
16320;SDS011;8269;50.990;4.494;2023-03-01T14:51:27;12.17;;;8.20;;
16320;SDS011;8269;50.990;4.494;2023-03-01T14:53:54;11.57;;;8.60;;
16320;SDS011;8269;50.990;4.494;2023-03-01T14:56:20;11.13;;;7.73;;
16320;SDS011;8269;50.990;4.494;2023-03-01T14:58:46;11.77;;;8.67;;
16320;SDS011;8269;50.990;4.494;2023-03-01T15:01:13;13.00;;;6.73;;
16320;SDS011;8269;50.990;4.494;2023-03-01T15:03:41;10.43;;;7.50;;
16320;SDS011;8269;50.990;4.494;2023-03-01T15:06:08;10.43;;;7.57;;
16320;SDS011;8269;50.990;4.494;2023-03-01T15:08:35;12.17;;;8.07;;
16320;SDS011;8269;50.990;4.494;2023-03-01T15:11:04;11.43;;;8.80;;
16320;SDS011;8269;50.990;4.494;2023-03-01T15:13:31;10.33;;;7.90;;
16320;SDS011;8269;50.990;4.494;2023-03-01T15:16:32;11.50;;;9.07;;
16320;SDS011;8269;50.990;4.494;2023-03-01T15:18:52;11.80;;;8.40;;
16320;SDS011;8269;50.990;4.494;2023-03-01T15:21:22;13.00;;;9.13;;
16320;SDS011;8269;50.990;4.494;2023-03-01T15:23:53;14.00;;;8.87;;
16320;SDS011;8269;50.990;4.494;2023-03-01T15:26:21;11.10;;;8.37;;
16320;SDS011;8269;50.990;4.494;2023-03-01T15:28:49;13.97;;;8.73;;
16320;SDS011;8269;50.990;4.494;2023-03-01T15:31:23;10.57;;;8.03;;
16320;SDS011;8269;50.990;4.494;2023-03-01T15:33:49;11.63;;;8.33;;
16320;SDS011;8269;50.990;4.494;2023-03-01T15:38:57;13.43;;;8.83;;
16320;SDS011;8269;50.990;4.494;2023-03-01T15:41:28;10.33;;;8.07;;
16320;SDS011;8269;50.990;4.494;2023-03-01T15:43:59;10.73;;;8.00;;
16320;SDS011;8269;50.990;4.494;2023-03-01T15:46:26;10.93;;;7.83;;
16320;SDS011;8269;50.990;4.494;2023-03-01T15:48:54;10.27;;;7.67;;
16320;SDS011;8269;50.990;4.494;2023-03-01T15:51:35;12.03;;;8.27;;
16320;SDS011;8269;50.990;4.494;2023-03-01T15:54:03;10.63;;;7.27;;
16320;SDS011;8269;50.990;4.494;2023-03-01T15:56:30;10.67;;;7.03;;
16320;SDS011;8269;50.990;4.494;2023-03-01T15:58:57;10.00;;;7.47;;
16320;SDS011;8269;50.990;4.494;2023-03-01T16:01:24;7.93;;;6.27;;
16320;SDS011;8269;50.990;4.494;2023-03-01T16:03:50;9.97;;;6.63;;
16320;SDS011;8269;50.990;4.494;2023-03-01T16:06:16;12.10;;;7.30;;
16320;SDS011;8269;50.990;4.494;2023-03-01T16:08:44;13.40;;;6.80;;
16320;SDS011;8269;50.990;4.494;2023-03-01T16:11:17;10.20;;;6.67;;
16320;SDS011;8269;50.990;4.494;2023-03-01T16:13:43;8.30;;;6.67;;
16320;SDS011;8269;50.990;4.494;2023-03-01T16:16:11;10.20;;;7.33;;
16320;SDS011;8269;50.990;4.494;2023-03-01T16:18:44;9.07;;;6.93;;
16320;SDS011;8269;50.990;4.494;2023-03-01T16:21:21;10.07;;;6.77;;
16320;SDS011;8269;50.990;4.494;2023-03-01T16:23:48;10.07;;;7.10;;
16320;SDS011;8269;50.990;4.494;2023-03-01T16:26:14;10.87;;;6.60;;
16320;SDS011;8269;50.990;4.494;2023-03-01T16:28:41;9.53;;;7.03;;
16320;SDS011;8269;50.990;4.494;2023-03-01T16:31:07;9.67;;;6.90;;
16320;SDS011;8269;50.990;4.494;2023-03-01T16:33:34;10.97;;;7.20;;
16320;SDS011;8269;50.990;4.494;2023-03-01T16:36:01;9.33;;;6.80;;
16320;SDS011;8269;50.990;4.494;2023-03-01T16:38:27;9.60;;;6.80;;
16320;SDS011;8269;50.990;4.494;2023-03-01T16:40:54;10.23;;;6.77;;
16320;SDS011;8269;50.990;4.494;2023-03-01T16:43:20;9.77;;;6.57;;
16320;SDS011;8269;50.990;4.494;2023-03-01T16:45:46;9.40;;;6.67;;
16320;SDS011;8269;50.990;4.494;2023-03-01T16:48:12;10.50;;;7.50;;
16320;SDS011;8269;50.990;4.494;2023-03-01T16:50:38;8.53;;;6.47;;